createdAt,value
2017-09-30T00:00:21.727Z,0
2017-09-30T00:01:23.162Z,0
2017-09-30T00:02:24.579Z,0
2017-09-30T00:03:25.997Z,0
2017-09-30T00:04:27.423Z,0
2017-09-30T00:05:28.833Z,0
2017-09-30T00:06:30.261Z,0
2017-09-30T00:07:31.673Z,0
2017-09-30T00:08:33.106Z,0
2017-09-30T00:09:34.536Z,0
2017-09-30T00:10:35.948Z,0
2017-09-30T00:11:37.365Z,0
2017-09-30T00:12:38.783Z,0
2017-09-30T00:13:40.211Z,0
2017-09-30T00:14:41.637Z,0
2017-09-30T00:15:43.067Z,0
2017-09-30T00:16:44.489Z,0
2017-09-30T00:17:45.917Z,0
2017-09-30T00:18:47.339Z,0
2017-09-30T00:19:48.763Z,0
2017-09-30T00:20:50.192Z,0
2017-09-30T00:21:51.610Z,0
2017-09-30T00:22:53.029Z,0
2017-09-30T00:23:54.446Z,0
2017-09-30T00:24:55.871Z,0
2017-09-30T00:25:57.297Z,0
2017-09-30T00:26:58.726Z,0
2017-09-30T00:28:00.159Z,0
2017-09-30T00:29:01.592Z,0
2017-09-30T00:30:03.011Z,0
2017-09-30T00:31:04.436Z,0
2017-09-30T00:32:05.858Z,0
2017-09-30T00:33:07.277Z,0
2017-09-30T00:34:08.697Z,0
2017-09-30T00:35:10.140Z,0
2017-09-30T00:36:11.568Z,0
2017-09-30T00:37:12.987Z,0
2017-09-30T00:38:14.408Z,0
2017-09-30T00:39:15.827Z,0
2017-09-30T00:40:17.250Z,0
2017-09-30T00:41:18.682Z,0
2017-09-30T00:42:20.207Z,0
2017-09-30T00:43:21.628Z,0
2017-09-30T00:44:23.046Z,0
2017-09-30T00:45:24.468Z,0
2017-09-30T00:46:25.895Z,0
2017-09-30T00:47:27.330Z,0
2017-09-30T00:48:28.743Z,0
2017-09-30T00:49:30.164Z,0
2017-09-30T00:50:31.590Z,0
2017-09-30T00:51:33.019Z,0
2017-09-30T00:52:34.423Z,0
2017-09-30T00:53:35.843Z,0
2017-09-30T00:54:37.268Z,0
2017-09-30T00:55:38.694Z,0
2017-09-30T00:56:40.114Z,0
2017-09-30T00:57:41.536Z,0
2017-09-30T00:58:42.957Z,0
2017-09-30T00:59:44.381Z,0
2017-09-30T01:00:45.799Z,0
2017-09-30T01:01:47.215Z,0
2017-09-30T01:02:48.637Z,0
2017-09-30T01:03:50.056Z,0
2017-09-30T01:04:51.478Z,0
2017-09-30T01:05:52.902Z,0
2017-09-30T01:06:54.328Z,0
2017-09-30T01:07:55.744Z,0
2017-09-30T01:08:57.165Z,0
2017-09-30T01:09:58.581Z,0
2017-09-30T01:10:59.996Z,0
2017-09-30T01:12:01.419Z,0
2017-09-30T01:13:02.842Z,0
2017-09-30T01:14:04.265Z,0
2017-09-30T01:15:05.689Z,0
2017-09-30T01:16:07.113Z,0
2017-09-30T01:17:08.541Z,0
2017-09-30T01:18:09.963Z,0
2017-09-30T01:19:11.377Z,0
2017-09-30T01:20:12.799Z,0
2017-09-30T01:21:14.224Z,0
2017-09-30T01:22:15.627Z,0
2017-09-30T01:23:17.048Z,0
2017-09-30T01:24:18.472Z,0
2017-09-30T01:25:19.903Z,0
2017-09-30T01:26:21.325Z,0
2017-09-30T01:27:22.748Z,0
2017-09-30T01:28:24.257Z,0
2017-09-30T01:29:25.676Z,0
2017-09-30T01:30:27.102Z,0
2017-09-30T01:31:28.531Z,0
2017-09-30T01:32:29.982Z,0
2017-09-30T01:33:31.403Z,0
2017-09-30T01:34:32.827Z,0
2017-09-30T01:35:34.259Z,0
2017-09-30T01:36:35.690Z,0
2017-09-30T01:37:37.104Z,0
2017-09-30T01:38:38.520Z,0
2017-09-30T01:39:39.944Z,0
2017-09-30T01:40:41.367Z,0
2017-09-30T01:41:42.784Z,0
2017-09-30T01:42:44.204Z,0
2017-09-30T01:43:45.628Z,0
2017-09-30T01:44:47.045Z,0
2017-09-30T01:45:48.467Z,0
2017-09-30T01:46:49.889Z,0
2017-09-30T01:47:51.309Z,0
2017-09-30T01:48:52.735Z,0
2017-09-30T01:49:54.157Z,0
2017-09-30T01:50:55.576Z,0
2017-09-30T01:51:57.003Z,0
2017-09-30T01:52:58.421Z,0
2017-09-30T01:53:59.846Z,0
2017-09-30T01:55:01.267Z,0
2017-09-30T01:56:02.690Z,0
2017-09-30T01:57:04.108Z,0
2017-09-30T01:58:05.531Z,0
2017-09-30T01:59:06.947Z,0
2017-09-30T02:00:08.365Z,0
2017-09-30T02:01:09.790Z,0
2017-09-30T02:02:11.216Z,0
2017-09-30T02:03:12.637Z,0
2017-09-30T02:04:14.065Z,0
2017-09-30T02:05:15.489Z,0
2017-09-30T02:06:16.921Z,0
2017-09-30T02:07:18.346Z,0
2017-09-30T02:08:19.765Z,0
2017-09-30T02:09:21.182Z,0
2017-09-30T02:10:22.610Z,0
2017-09-30T02:11:24.027Z,0
2017-09-30T02:12:25.444Z,0
2017-09-30T02:13:26.874Z,0
2017-09-30T02:14:28.302Z,0
2017-09-30T02:15:29.736Z,0
2017-09-30T02:16:31.155Z,0
2017-09-30T02:17:32.575Z,0
2017-09-30T02:18:34.001Z,0
2017-09-30T02:19:35.420Z,0
2017-09-30T02:20:36.839Z,0
2017-09-30T02:21:38.332Z,0
2017-09-30T02:22:39.779Z,0
2017-09-30T02:23:41.195Z,0
2017-09-30T02:24:42.617Z,0
2017-09-30T02:25:44.049Z,0
2017-09-30T02:26:45.476Z,0
2017-09-30T02:27:46.891Z,0
2017-09-30T02:28:48.305Z,0
2017-09-30T02:29:49.730Z,0
2017-09-30T02:30:51.157Z,0
2017-09-30T02:31:52.586Z,0
2017-09-30T02:32:54.008Z,0
2017-09-30T02:33:55.426Z,0
2017-09-30T02:34:56.848Z,0
2017-09-30T02:35:58.266Z,0
2017-09-30T02:36:59.685Z,0
2017-09-30T02:38:01.115Z,0
2017-09-30T02:39:02.522Z,0
2017-09-30T02:40:03.948Z,0
2017-09-30T02:41:05.371Z,0
2017-09-30T02:42:06.800Z,0
2017-09-30T02:43:08.215Z,0
2017-09-30T02:44:09.633Z,0
2017-09-30T02:45:11.052Z,0
2017-09-30T02:46:12.472Z,0
2017-09-30T02:47:13.894Z,0
2017-09-30T02:48:15.305Z,0
2017-09-30T02:49:16.727Z,0
2017-09-30T02:50:18.147Z,0
2017-09-30T02:51:19.570Z,0
2017-09-30T02:52:20.988Z,0
2017-09-30T02:53:22.405Z,0
2017-09-30T02:54:23.826Z,0
2017-09-30T02:55:25.247Z,0
2017-09-30T02:56:26.668Z,0
2017-09-30T02:57:28.086Z,0
2017-09-30T02:58:29.505Z,0
2017-09-30T02:59:30.927Z,0
2017-09-30T03:00:32.343Z,0
2017-09-30T03:01:33.762Z,0
2017-09-30T03:02:35.180Z,0
2017-09-30T03:03:36.599Z,0
2017-09-30T03:04:38.072Z,0
2017-09-30T03:05:39.488Z,0
2017-09-30T03:06:40.905Z,0
2017-09-30T03:07:42.333Z,0
2017-09-30T03:08:43.755Z,0
2017-09-30T03:09:45.177Z,0
2017-09-30T03:10:46.592Z,0
2017-09-30T03:11:48.015Z,0
2017-09-30T03:12:49.438Z,0
2017-09-30T03:13:50.859Z,0
2017-09-30T03:14:52.285Z,0
2017-09-30T03:15:53.708Z,0
2017-09-30T03:16:55.124Z,0
2017-09-30T03:17:56.550Z,0
2017-09-30T03:18:57.965Z,0
2017-09-30T03:19:59.382Z,0
2017-09-30T03:21:00.797Z,0
2017-09-30T03:22:02.215Z,0
2017-09-30T03:23:03.633Z,0
2017-09-30T03:24:05.054Z,0
2017-09-30T03:25:06.471Z,0
2017-09-30T03:26:07.892Z,0
2017-09-30T03:27:09.309Z,0
2017-09-30T03:28:10.731Z,0
2017-09-30T03:29:12.159Z,0
2017-09-30T03:30:13.581Z,0
2017-09-30T03:31:15.006Z,0
2017-09-30T03:32:16.424Z,0
2017-09-30T03:33:17.847Z,0
2017-09-30T03:34:19.265Z,0
2017-09-30T03:35:20.687Z,0
2017-09-30T03:36:22.102Z,0
2017-09-30T03:37:23.526Z,0
2017-09-30T03:38:24.939Z,0
2017-09-30T03:39:26.354Z,0
2017-09-30T03:40:27.771Z,0
2017-09-30T03:41:29.195Z,0
2017-09-30T03:42:30.622Z,0
2017-09-30T03:43:32.040Z,0
2017-09-30T03:44:33.463Z,0
2017-09-30T03:45:34.875Z,0
2017-09-30T03:46:36.300Z,0
2017-09-30T03:47:37.759Z,0
2017-09-30T03:48:39.178Z,0
2017-09-30T03:49:40.598Z,0
2017-09-30T03:50:42.019Z,0
2017-09-30T03:51:43.447Z,0
2017-09-30T03:52:44.862Z,0
2017-09-30T03:53:46.364Z,0
2017-09-30T03:54:47.783Z,0
2017-09-30T03:55:49.206Z,0
2017-09-30T03:56:50.626Z,0
2017-09-30T03:57:52.056Z,0
2017-09-30T03:58:53.482Z,0
2017-09-30T03:59:54.892Z,0
2017-09-30T04:00:56.311Z,0
2017-09-30T04:01:57.728Z,0
2017-09-30T04:02:59.151Z,0
2017-09-30T04:04:00.566Z,0
2017-09-30T04:05:01.987Z,0
2017-09-30T04:06:03.434Z,0
2017-09-30T04:07:04.830Z,0
2017-09-30T04:08:06.258Z,0
2017-09-30T04:09:07.672Z,0
2017-09-30T04:10:09.096Z,0
2017-09-30T04:11:10.508Z,0
2017-09-30T04:12:11.931Z,0
2017-09-30T04:13:13.348Z,0
2017-09-30T04:14:14.766Z,0
2017-09-30T04:15:16.186Z,0
2017-09-30T04:16:17.606Z,0
2017-09-30T04:17:19.025Z,0
2017-09-30T04:18:20.448Z,0
2017-09-30T04:19:21.864Z,0
2017-09-30T04:20:23.300Z,0
2017-09-30T04:21:24.720Z,0
2017-09-30T04:22:26.141Z,0
2017-09-30T04:23:27.556Z,0
2017-09-30T04:24:28.977Z,0
2017-09-30T04:25:30.408Z,0
2017-09-30T04:26:31.840Z,0
2017-09-30T04:27:33.252Z,0
2017-09-30T04:28:34.672Z,0
2017-09-30T04:29:36.089Z,0
2017-09-30T04:30:37.516Z,0
2017-09-30T04:31:38.936Z,0
2017-09-30T04:32:40.355Z,0
2017-09-30T04:33:41.769Z,0
2017-09-30T04:34:43.189Z,0
2017-09-30T04:35:44.609Z,0
2017-09-30T04:36:46.042Z,0
2017-09-30T04:37:47.468Z,0
2017-09-30T04:38:48.889Z,0
2017-09-30T04:39:50.309Z,0
2017-09-30T04:40:51.730Z,0
2017-09-30T04:41:53.155Z,0
2017-09-30T04:42:54.573Z,0
2017-09-30T04:43:55.990Z,0
2017-09-30T04:44:57.411Z,0
2017-09-30T04:45:58.829Z,0
2017-09-30T04:47:00.248Z,0
2017-09-30T04:48:01.668Z,0
2017-09-30T04:49:03.093Z,0
2017-09-30T04:50:04.501Z,0
2017-09-30T04:51:05.916Z,0
2017-09-30T04:52:07.337Z,0
2017-09-30T04:53:08.758Z,0
2017-09-30T04:54:10.180Z,0
2017-09-30T04:55:11.600Z,0
2017-09-30T04:56:13.019Z,0
2017-09-30T04:57:14.433Z,0
2017-09-30T04:58:15.858Z,0
2017-09-30T04:59:17.278Z,0
2017-09-30T05:00:18.701Z,0
2017-09-30T05:01:20.127Z,0
2017-09-30T05:02:21.536Z,0
2017-09-30T05:03:22.958Z,0
2017-09-30T05:04:24.378Z,0
2017-09-30T05:05:25.811Z,0
2017-09-30T05:06:27.213Z,0
2017-09-30T05:07:28.626Z,0
2017-09-30T05:08:30.048Z,0
2017-09-30T05:09:31.466Z,0
2017-09-30T05:10:32.885Z,0
2017-09-30T05:11:34.301Z,0
2017-09-30T05:12:35.730Z,0
2017-09-30T05:13:37.143Z,0
2017-09-30T05:14:38.567Z,0
2017-09-30T05:15:39.997Z,0
2017-09-30T05:16:41.415Z,0
2017-09-30T05:17:42.830Z,0
2017-09-30T05:18:44.258Z,0
2017-09-30T05:19:45.735Z,0
2017-09-30T05:20:47.156Z,0
2017-09-30T05:21:48.577Z,0
2017-09-30T05:22:49.995Z,0
2017-09-30T05:23:51.414Z,0
2017-09-30T05:24:52.835Z,0
2017-09-30T05:25:54.249Z,0
2017-09-30T05:26:55.671Z,0
2017-09-30T05:27:57.089Z,0
2017-09-30T05:28:58.503Z,0
2017-09-30T05:29:59.923Z,0
2017-09-30T05:31:01.348Z,0
2017-09-30T05:32:02.767Z,0
2017-09-30T05:33:04.189Z,0
2017-09-30T05:34:05.609Z,0
2017-09-30T05:35:07.033Z,0
2017-09-30T05:36:08.484Z,0
2017-09-30T05:37:09.895Z,0
2017-09-30T05:38:11.321Z,0
2017-09-30T05:39:12.740Z,0
2017-09-30T05:40:14.164Z,0
2017-09-30T05:41:15.588Z,0
2017-09-30T05:42:17.019Z,0
2017-09-30T05:43:18.441Z,0
2017-09-30T05:44:19.863Z,0
2017-09-30T05:45:21.289Z,0
2017-09-30T05:46:22.706Z,0
2017-09-30T05:47:24.132Z,0
2017-09-30T05:48:25.555Z,0
2017-09-30T05:49:26.996Z,0
2017-09-30T05:50:28.393Z,0
2017-09-30T05:51:29.807Z,0
2017-09-30T05:52:31.230Z,0
2017-09-30T05:53:32.657Z,0
2017-09-30T05:54:34.089Z,0
2017-09-30T05:55:35.518Z,0
2017-09-30T05:56:36.942Z,0
2017-09-30T05:57:38.364Z,0
2017-09-30T05:58:39.780Z,0
2017-09-30T05:59:41.197Z,0
2017-09-30T06:00:42.630Z,0
2017-09-30T06:01:44.041Z,0
2017-09-30T06:02:45.457Z,0
2017-09-30T06:03:46.881Z,0
2017-09-30T06:04:48.299Z,0
2017-09-30T06:05:49.732Z,0
2017-09-30T06:06:51.146Z,0
2017-09-30T06:07:52.568Z,0
2017-09-30T06:08:53.986Z,0
2017-09-30T06:09:55.410Z,0
2017-09-30T06:10:56.832Z,0
2017-09-30T06:11:58.251Z,0
2017-09-30T06:12:59.672Z,0
2017-09-30T06:14:01.096Z,0
2017-09-30T06:15:02.517Z,0
2017-09-30T06:16:03.952Z,0
2017-09-30T06:17:05.375Z,5
2017-09-30T06:18:06.793Z,5
2017-09-30T06:19:08.219Z,5
2017-09-30T06:20:09.636Z,5
2017-09-30T06:21:11.063Z,5
2017-09-30T06:22:12.480Z,5
2017-09-30T06:23:13.907Z,5
2017-09-30T06:24:15.330Z,10
2017-09-30T06:25:18.186Z,10
2017-09-30T06:26:19.611Z,15
2017-09-30T06:27:21.040Z,15
2017-09-30T06:28:22.461Z,15
2017-09-30T06:29:23.943Z,15
2017-09-30T06:30:25.368Z,15
2017-09-30T06:31:26.792Z,15
2017-09-30T06:32:28.242Z,15
2017-09-30T06:33:29.670Z,15
2017-09-30T06:34:31.098Z,15
2017-09-30T06:35:32.526Z,15
2017-09-30T06:36:33.963Z,15
2017-09-30T06:37:35.388Z,15
2017-09-30T06:38:36.820Z,15
2017-09-30T06:39:38.242Z,15
2017-09-30T06:40:39.667Z,15
2017-09-30T06:41:41.089Z,15
2017-09-30T06:42:42.508Z,15
2017-09-30T06:43:43.925Z,15
2017-09-30T06:44:45.346Z,20
2017-09-30T06:45:46.766Z,20
2017-09-30T06:46:48.191Z,25
2017-09-30T06:47:49.612Z,20
2017-09-30T06:48:51.034Z,20
2017-09-30T06:49:52.463Z,20
2017-09-30T06:50:53.882Z,20
2017-09-30T06:51:55.313Z,15
2017-09-30T06:52:56.731Z,20
2017-09-30T06:53:58.157Z,20
2017-09-30T06:54:59.581Z,25
2017-09-30T06:56:01.009Z,25
2017-09-30T06:57:02.426Z,30
2017-09-30T06:58:03.863Z,25
2017-09-30T06:59:05.269Z,40
2017-09-30T07:00:06.701Z,45
2017-09-30T07:01:08.153Z,45
2017-09-30T07:02:09.578Z,45
2017-09-30T07:03:11.006Z,45
2017-09-30T07:04:12.426Z,45
2017-09-30T07:05:13.856Z,45
2017-09-30T07:06:15.310Z,40
2017-09-30T07:07:16.709Z,40
2017-09-30T07:08:18.139Z,40
2017-09-30T07:09:19.571Z,40
2017-09-30T07:10:20.992Z,40
2017-09-30T07:11:22.410Z,40
2017-09-30T07:12:23.831Z,35
2017-09-30T07:13:25.253Z,35
2017-09-30T07:14:26.678Z,35
2017-09-30T07:15:28.108Z,35
2017-09-30T07:16:29.533Z,35
2017-09-30T07:17:30.963Z,30
2017-09-30T07:18:32.382Z,30
2017-09-30T07:19:33.821Z,30
2017-09-30T07:20:35.246Z,30
2017-09-30T07:21:36.673Z,25
2017-09-30T07:22:38.093Z,25
2017-09-30T07:23:39.589Z,25
2017-09-30T07:24:41.015Z,25
2017-09-30T07:25:42.482Z,25
2017-09-30T07:26:43.923Z,25
2017-09-30T07:27:45.344Z,25
2017-09-30T07:28:46.765Z,25
2017-09-30T07:29:48.191Z,25
2017-09-30T07:30:49.617Z,25
2017-09-30T07:31:51.044Z,25
2017-09-30T07:32:52.473Z,25
2017-09-30T07:33:53.931Z,25
2017-09-30T07:34:55.356Z,25
2017-09-30T07:35:56.777Z,25
2017-09-30T07:36:58.214Z,25
2017-09-30T07:38:00.212Z,25
2017-09-30T07:39:01.637Z,25
2017-09-30T07:40:03.064Z,25
2017-09-30T07:41:04.485Z,25
2017-09-30T07:42:05.910Z,25
2017-09-30T07:43:07.339Z,30
2017-09-30T07:44:08.758Z,30
2017-09-30T07:45:10.175Z,30
2017-09-30T07:46:11.597Z,30
2017-09-30T07:47:13.023Z,30
2017-09-30T07:48:14.447Z,30
2017-09-30T07:49:15.873Z,30
2017-09-30T07:50:17.304Z,30
2017-09-30T07:51:18.724Z,30
2017-09-30T07:52:20.152Z,30
2017-09-30T07:53:21.578Z,30
2017-09-30T07:54:23.018Z,30
2017-09-30T07:55:24.439Z,30
2017-09-30T07:56:25.870Z,30
2017-09-30T07:57:27.292Z,30
2017-09-30T07:58:28.738Z,30
2017-09-30T07:59:30.173Z,30
2017-09-30T08:00:31.596Z,30
2017-09-30T08:01:33.031Z,30
2017-09-30T08:02:34.456Z,30
2017-09-30T08:03:35.878Z,30
2017-09-30T08:04:37.298Z,30
2017-09-30T08:05:38.729Z,30
2017-09-30T08:06:40.163Z,30
2017-09-30T08:07:41.620Z,30
2017-09-30T08:08:43.046Z,30
2017-09-30T08:09:44.466Z,30
2017-09-30T08:10:45.894Z,30
2017-09-30T08:11:47.315Z,30
2017-09-30T08:12:48.741Z,30
2017-09-30T08:13:50.166Z,30
2017-09-30T08:14:51.613Z,25
2017-09-30T08:15:53.042Z,25
2017-09-30T08:16:54.469Z,25
2017-09-30T08:17:55.895Z,25
2017-09-30T08:18:57.320Z,25
2017-09-30T08:19:58.752Z,20
2017-09-30T08:21:00.182Z,20
2017-09-30T08:22:01.609Z,20
2017-09-30T08:23:03.042Z,20
2017-09-30T08:24:04.471Z,20
2017-09-30T08:25:05.895Z,20
2017-09-30T08:26:07.328Z,20
2017-09-30T08:27:08.756Z,20
2017-09-30T08:28:10.189Z,20
2017-09-30T08:29:11.608Z,20
2017-09-30T08:30:13.037Z,20
2017-09-30T08:31:14.459Z,20
2017-09-30T08:32:15.888Z,15
2017-09-30T08:33:17.342Z,10
2017-09-30T08:34:18.768Z,5
2017-09-30T08:35:20.185Z,15
2017-09-30T08:36:21.611Z,25
2017-09-30T08:37:23.046Z,25
2017-09-30T08:38:24.468Z,25
2017-09-30T08:39:25.902Z,25
2017-09-30T08:40:27.328Z,25
2017-09-30T08:41:28.749Z,25
2017-09-30T08:42:30.171Z,25
2017-09-30T08:43:31.597Z,25
2017-09-30T08:44:33.025Z,25
2017-09-30T08:45:34.459Z,25
2017-09-30T08:46:35.888Z,20
2017-09-30T08:47:37.321Z,20
2017-09-30T08:48:38.742Z,20
2017-09-30T08:49:40.181Z,20
2017-09-30T08:50:41.601Z,20
2017-09-30T08:51:43.031Z,20
2017-09-30T08:52:44.449Z,20
2017-09-30T08:53:45.887Z,20
2017-09-30T08:54:47.312Z,20
2017-09-30T08:55:48.744Z,20
2017-09-30T08:56:50.166Z,20
2017-09-30T08:57:51.589Z,20
2017-09-30T08:58:53.015Z,20
2017-09-30T08:59:54.436Z,20
2017-09-30T09:00:55.847Z,25
2017-09-30T09:01:57.275Z,25
2017-09-30T09:02:58.715Z,25
2017-09-30T09:04:00.155Z,30
2017-09-30T09:05:01.584Z,30
2017-09-30T09:06:03.002Z,30
2017-09-30T09:07:04.425Z,30
2017-09-30T09:08:05.848Z,30
2017-09-30T09:09:07.270Z,30
2017-09-30T09:10:08.690Z,30
2017-09-30T09:11:10.120Z,30
2017-09-30T09:12:11.548Z,30
2017-09-30T09:13:12.970Z,30
2017-09-30T09:14:14.400Z,35
2017-09-30T09:15:15.831Z,35
2017-09-30T09:16:17.264Z,35
2017-09-30T09:17:18.686Z,35
2017-09-30T09:18:20.106Z,40
2017-09-30T09:19:21.529Z,45
2017-09-30T09:20:22.961Z,50
2017-09-30T09:21:24.381Z,60
2017-09-30T09:22:25.811Z,65
2017-09-30T09:23:27.228Z,65
2017-09-30T09:24:28.656Z,70
2017-09-30T09:25:30.077Z,75
2017-09-30T09:26:31.500Z,75
2017-09-30T09:27:32.920Z,75
2017-09-30T09:28:34.353Z,80
2017-09-30T09:29:35.786Z,80
2017-09-30T09:30:37.224Z,80
2017-09-30T09:31:38.653Z,80
2017-09-30T09:32:40.082Z,80
2017-09-30T09:33:41.501Z,80
2017-09-30T09:34:42.928Z,80
2017-09-30T09:35:44.357Z,80
2017-09-30T09:36:45.784Z,80
2017-09-30T09:37:47.213Z,75
2017-09-30T09:38:48.639Z,75
2017-09-30T09:39:50.072Z,75
2017-09-30T09:40:51.503Z,70
2017-09-30T09:41:52.938Z,70
2017-09-30T09:42:54.368Z,65
2017-09-30T09:43:55.790Z,60
2017-09-30T09:44:57.219Z,60
2017-09-30T09:45:58.652Z,55
2017-09-30T09:47:00.079Z,55
2017-09-30T09:48:01.501Z,55
2017-09-30T09:49:02.929Z,60
2017-09-30T09:50:04.369Z,60
2017-09-30T09:51:05.794Z,65
2017-09-30T09:52:07.219Z,65
2017-09-30T09:53:08.650Z,65
2017-09-30T09:54:10.075Z,65
2017-09-30T09:55:11.501Z,65
2017-09-30T09:56:12.960Z,60
2017-09-30T09:57:16.228Z,60
2017-09-30T09:58:17.598Z,55
2017-09-30T09:59:19.038Z,55
2017-09-30T10:00:20.505Z,50
2017-09-30T10:01:21.944Z,50
2017-09-30T10:02:23.382Z,50
2017-09-30T10:03:24.804Z,50
2017-09-30T10:04:26.235Z,50
2017-09-30T10:05:27.700Z,50
2017-09-30T10:06:29.119Z,50
2017-09-30T10:07:30.553Z,50
2017-09-30T10:08:31.974Z,55
2017-09-30T10:09:33.402Z,55
2017-09-30T10:10:34.861Z,55
2017-09-30T10:11:36.325Z,55
2017-09-30T10:12:37.763Z,50
2017-09-30T10:13:39.175Z,55
2017-09-30T10:14:40.609Z,60
2017-09-30T10:15:42.050Z,55
2017-09-30T10:16:43.483Z,55
2017-09-30T10:17:44.910Z,45
2017-09-30T10:18:46.332Z,40
2017-09-30T10:19:47.857Z,40
2017-09-30T10:20:49.275Z,40
2017-09-30T10:21:50.702Z,40
2017-09-30T10:22:52.224Z,40
2017-09-30T10:23:53.678Z,35
2017-09-30T10:24:55.106Z,35
2017-09-30T10:25:56.544Z,35
2017-09-30T10:26:58.009Z,30
2017-09-30T10:27:59.439Z,30
2017-09-30T10:29:00.860Z,25
2017-09-30T10:30:02.302Z,25
2017-09-30T10:31:03.728Z,25
2017-09-30T10:32:05.157Z,25
2017-09-30T10:33:06.581Z,20
2017-09-30T10:34:08.012Z,20
2017-09-30T10:35:09.435Z,15
2017-09-30T10:36:10.858Z,15
2017-09-30T10:37:12.318Z,15
2017-09-30T10:38:13.744Z,10
2017-09-30T10:39:15.166Z,10
2017-09-30T10:40:16.596Z,15
2017-09-30T10:41:18.029Z,15
2017-09-30T10:42:19.452Z,20
2017-09-30T10:43:20.874Z,30
2017-09-30T10:44:22.296Z,30
2017-09-30T10:45:23.724Z,45
2017-09-30T10:46:25.156Z,50
2017-09-30T10:47:26.581Z,45
2017-09-30T10:48:27.998Z,40
2017-09-30T10:49:29.434Z,35
2017-09-30T10:50:30.859Z,25
2017-09-30T10:51:32.284Z,20
2017-09-30T10:52:33.709Z,15
2017-09-30T10:53:35.156Z,10
2017-09-30T10:54:36.560Z,10
2017-09-30T10:55:38.008Z,10
2017-09-30T10:56:39.443Z,10
2017-09-30T10:57:40.872Z,15
2017-09-30T10:58:42.289Z,15
2017-09-30T10:59:43.719Z,20
2017-09-30T11:00:45.142Z,20
2017-09-30T11:01:46.567Z,20
2017-09-30T11:02:47.990Z,20
2017-09-30T11:03:49.422Z,25
2017-09-30T11:04:50.856Z,25
2017-09-30T11:05:52.283Z,25
2017-09-30T11:06:53.702Z,25
2017-09-30T11:07:55.121Z,30
2017-09-30T11:08:56.547Z,30
2017-09-30T11:09:57.970Z,30
2017-09-30T11:10:59.392Z,30
2017-09-30T11:12:00.812Z,25
2017-09-30T11:13:02.236Z,25
2017-09-30T11:14:03.660Z,25
2017-09-30T11:15:05.088Z,25
2017-09-30T11:16:06.511Z,20
2017-09-30T11:17:07.931Z,15
2017-09-30T11:18:09.358Z,20
2017-09-30T11:19:10.780Z,25
2017-09-30T11:20:12.201Z,25
2017-09-30T11:21:13.621Z,25
2017-09-30T11:22:15.040Z,25
2017-09-30T11:23:16.468Z,30
2017-09-30T11:24:17.904Z,40
2017-09-30T11:25:19.319Z,40
2017-09-30T11:26:20.753Z,35
2017-09-30T11:27:22.183Z,30
2017-09-30T11:28:23.626Z,25
2017-09-30T11:29:25.047Z,25
2017-09-30T11:30:26.477Z,25
2017-09-30T11:31:27.974Z,25
2017-09-30T11:32:29.393Z,30
2017-09-30T11:33:30.819Z,35
2017-09-30T11:34:32.256Z,35
2017-09-30T11:35:33.797Z,30
2017-09-30T11:36:35.230Z,30
2017-09-30T11:37:36.652Z,30
2017-09-30T11:38:38.119Z,30
2017-09-30T11:39:39.553Z,30
2017-09-30T11:40:41.008Z,35
2017-09-30T11:41:42.438Z,35
2017-09-30T11:42:43.883Z,35
2017-09-30T11:43:45.301Z,35
2017-09-30T11:44:46.716Z,35
2017-09-30T11:45:48.147Z,30
2017-09-30T11:46:49.579Z,25
2017-09-30T11:47:51.005Z,20
2017-09-30T11:48:52.427Z,20
2017-09-30T11:49:53.853Z,15
2017-09-30T11:50:55.286Z,10
2017-09-30T11:51:56.714Z,10
2017-09-30T11:52:58.140Z,5
2017-09-30T11:53:59.562Z,0
2017-09-30T11:55:00.988Z,5
2017-09-30T11:56:02.408Z,5
2017-09-30T11:57:03.829Z,5
2017-09-30T11:58:05.255Z,5
2017-09-30T11:59:06.679Z,15
2017-09-30T12:00:08.118Z,20
2017-09-30T12:01:09.533Z,5
2017-09-30T12:02:10.957Z,20
2017-09-30T12:03:12.390Z,10
2017-09-30T12:04:13.819Z,10
2017-09-30T12:05:15.246Z,15
2017-09-30T12:06:16.671Z,10
2017-09-30T12:07:18.098Z,15
2017-09-30T12:08:19.526Z,25
2017-09-30T12:09:20.955Z,20
2017-09-30T12:10:22.379Z,15
2017-09-30T12:11:23.811Z,15
2017-09-30T12:12:25.231Z,10
2017-09-30T12:13:26.663Z,5
2017-09-30T12:14:28.098Z,5
2017-09-30T12:15:29.532Z,15
2017-09-30T12:16:30.957Z,15
2017-09-30T12:17:32.389Z,15
2017-09-30T12:18:33.837Z,15
2017-09-30T12:19:35.257Z,20
2017-09-30T12:20:36.675Z,20
2017-09-30T12:21:38.125Z,10
2017-09-30T12:22:39.551Z,5
2017-09-30T12:23:40.976Z,5
2017-09-30T12:24:42.407Z,5
2017-09-30T12:25:43.824Z,5
2017-09-30T12:26:45.250Z,5
2017-09-30T12:27:46.688Z,5
2017-09-30T12:28:48.122Z,0
2017-09-30T12:29:49.548Z,5
2017-09-30T12:30:50.971Z,5
2017-09-30T12:31:52.392Z,5
2017-09-30T12:32:53.813Z,5
2017-09-30T12:33:55.245Z,5
2017-09-30T12:34:56.669Z,5
2017-09-30T12:35:58.092Z,5
2017-09-30T12:36:59.524Z,5
2017-09-30T12:38:00.949Z,20
2017-09-30T12:39:02.394Z,20
2017-09-30T12:40:03.825Z,15
2017-09-30T12:41:05.239Z,10
2017-09-30T12:42:06.664Z,20
2017-09-30T12:43:08.093Z,20
2017-09-30T12:44:09.520Z,20
2017-09-30T12:45:10.941Z,20
2017-09-30T12:46:12.374Z,20
2017-09-30T12:47:13.801Z,20
2017-09-30T12:48:15.237Z,15
2017-09-30T12:49:16.658Z,20
2017-09-30T12:50:18.082Z,20
2017-09-30T12:51:19.508Z,25
2017-09-30T12:52:20.929Z,25
2017-09-30T12:53:22.364Z,25
2017-09-30T12:54:23.793Z,30
2017-09-30T12:55:25.205Z,25
2017-09-30T12:56:26.633Z,25
2017-09-30T12:57:28.058Z,25
2017-09-30T12:58:29.490Z,20
2017-09-30T12:59:30.912Z,20
2017-09-30T13:00:32.332Z,20
2017-09-30T13:01:33.749Z,15
2017-09-30T13:02:35.177Z,15
2017-09-30T13:03:36.596Z,15
2017-09-30T13:04:38.024Z,10
2017-09-30T13:05:39.466Z,15
2017-09-30T13:06:40.892Z,10
2017-09-30T13:07:42.313Z,15
2017-09-30T13:08:43.729Z,15
2017-09-30T13:09:45.162Z,15
2017-09-30T13:10:46.579Z,10
2017-09-30T13:11:47.999Z,10
2017-09-30T13:12:49.423Z,10
2017-09-30T13:13:50.855Z,10
2017-09-30T13:14:52.278Z,10
2017-09-30T13:15:53.701Z,10
2017-09-30T13:16:55.143Z,10
2017-09-30T13:17:56.562Z,5
2017-09-30T13:18:57.991Z,5
2017-09-30T13:19:59.408Z,10
2017-09-30T13:21:00.830Z,10
2017-09-30T13:22:02.262Z,15
2017-09-30T13:23:03.677Z,15
2017-09-30T13:24:05.104Z,15
2017-09-30T13:25:06.541Z,15
2017-09-30T13:26:07.960Z,15
2017-09-30T13:27:10.216Z,15
2017-09-30T13:28:11.694Z,10
2017-09-30T13:29:13.116Z,10
2017-09-30T13:30:14.548Z,10
2017-09-30T13:31:15.977Z,10
2017-09-30T13:32:17.400Z,10
2017-09-30T13:33:18.830Z,10
2017-09-30T13:34:20.280Z,10
2017-09-30T13:35:21.707Z,10
2017-09-30T13:36:23.134Z,10
2017-09-30T13:37:24.553Z,10
2017-09-30T13:38:25.969Z,15
2017-09-30T13:39:27.420Z,15
2017-09-30T13:40:28.842Z,15
2017-09-30T13:41:30.269Z,15
2017-09-30T13:42:31.721Z,15
2017-09-30T13:43:33.123Z,15
2017-09-30T13:44:34.554Z,10
2017-09-30T13:45:35.974Z,10
2017-09-30T13:46:37.398Z,10
2017-09-30T13:47:38.818Z,15
2017-09-30T13:48:40.240Z,15
2017-09-30T13:49:41.660Z,15
2017-09-30T13:50:43.082Z,15
2017-09-30T13:51:44.504Z,15
2017-09-30T13:52:45.925Z,15
2017-09-30T13:53:47.358Z,15
2017-09-30T13:54:48.786Z,10
2017-09-30T13:55:50.212Z,15
2017-09-30T13:56:51.633Z,15
2017-09-30T13:57:53.065Z,15
2017-09-30T13:58:54.496Z,15
2017-09-30T13:59:55.917Z,15
2017-09-30T14:00:57.345Z,15
2017-09-30T14:01:58.784Z,15
2017-09-30T14:03:00.213Z,15
2017-09-30T14:04:01.731Z,15
2017-09-30T14:05:03.173Z,10
2017-09-30T14:06:04.592Z,15
2017-09-30T14:07:09.797Z,15
2017-09-30T14:08:12.046Z,15
2017-09-30T14:09:13.463Z,15
2017-09-30T14:10:14.880Z,15
2017-09-30T14:11:16.304Z,15
2017-09-30T14:12:17.723Z,20
2017-09-30T14:13:19.148Z,15
2017-09-30T14:14:20.572Z,20
2017-09-30T14:15:22.004Z,20
2017-09-30T14:16:23.436Z,25
2017-09-30T14:17:24.880Z,25
2017-09-30T14:18:26.303Z,25
2017-09-30T14:19:27.786Z,25
2017-09-30T14:20:29.204Z,25
2017-09-30T14:21:30.629Z,25
2017-09-30T14:22:32.092Z,25
2017-09-30T14:23:33.525Z,20
2017-09-30T14:24:34.960Z,20
2017-09-30T14:25:36.379Z,15
2017-09-30T14:26:37.803Z,15
2017-09-30T14:27:39.226Z,10
2017-09-30T14:28:40.658Z,10
2017-09-30T14:29:42.106Z,10
2017-09-30T14:30:43.531Z,10
2017-09-30T14:31:44.950Z,10
2017-09-30T14:32:46.380Z,10
2017-09-30T14:33:47.822Z,10
2017-09-30T14:34:49.250Z,10
2017-09-30T14:35:50.688Z,10
2017-09-30T14:36:52.114Z,15
2017-09-30T14:37:53.543Z,15
2017-09-30T14:38:54.967Z,15
2017-09-30T14:39:56.391Z,15
2017-09-30T14:40:57.816Z,20
2017-09-30T14:41:59.255Z,15
2017-09-30T14:43:00.691Z,15
2017-09-30T14:44:02.118Z,15
2017-09-30T14:45:03.542Z,15
2017-09-30T14:46:04.963Z,20
2017-09-30T14:47:06.382Z,25
2017-09-30T14:48:07.813Z,35
2017-09-30T14:49:09.223Z,40
2017-09-30T14:50:10.637Z,35